Skip Navigation Links Skip Navigation Links

Current Weather

Oslo / Gardermoen, Norway

For information only: do not use for flight planning or navigation.
Latest weather
Observation time Sunday, September 20, 2020 8:50 AM CEST
Local time Sunday, September 20, 2020 9:21 AM CEST
Flight conditions Visual Meteorological Conditions
Winds
Wind direction variable
Wind speed 1 mph
Visibility 5.6 mi.
Present weather fog in the vicinity
Sky condition
Ceiling unlimited
Cloud layer few clouds 200 ft.
Cloud layer scattered clouds 25,000 ft.
Temperature 46°F
Dewpoint 43°F
Altimeter 30.09 in.Hg
Derived measurements
Relative humidity 87%
Wind chill 46°F
Density altitude -881 ft.
Remarks
No significant changes expected in the next two hours.
METAR ENGM 200650Z VRB01KT 9000 1500N VCFG FEW002 SCT250 08/06 Q1019 NOSIG

Settings

Location code

InnerDrive.Weather 4.0.6770.0 Release CLR 4.0.30319.42000
Copyright ©2018 Inner Drive Technology. All rights reserved. Portions Copyright ©1986-2018 David Braverman.

Find weather

Site navigation


Skip Navigation Links

Place info

Page info

PayPal - The safer, easier way to pay online!

Return home.

Copyright ©2020 Inner Drive Technology. Purveyors of fine, hand-crafted computer software. Page printed 2020-09-20T07:21:51 UTC.